Aérodrome :
LOGIN :

S'inscrire | Disclaimer

   EN    FR    IT 

 










Légende :    VFR   VFR Marginal   IFR   IFR Intensif   IFR Très Intensif
Visi : 
Plafond : 
>= 8 km
>= 3000ft
5 à 8 km
1000 à 3000 ft
1500m à 5 km
500 à 1000 ft
800 à 1500m
200 à 500 ft
< 800m
< 200 ft
Symboles :   Orages  Brouillard  Fortes neiges  Fortes précipitations  Vent > 20 kt
SIGMETs :   Divers  Orages  Givrage  Turbulence  Onde Orograph.  Cendres Volcan.







- Altitude de l'aérodrome : 364 ft
- Voir les cartes d'approche


LFAQ - Albert Bray

DERNIER METAR :
  • 131300Z AUTO 21012KT 9999 SCT008 BKN015 OVC027 07/07 Q1000 TEMPO 4000 RA OVC004

METARs EXPIRÉS :
  • 131230Z AUTO 20012KT 9999 SCT008 BKN024 BKN030 07/06 Q1001 TEMPO 4000 RA OVC004
  • 131200Z AUTO 21014KT 9999 -RA SCT025 BKN031 OVC038 07/06 Q1001 TEMPO 4000 RA OVC004
  • 131130Z AUTO 21014KT 9999 FEW007 BKN030 BKN042 07/06 Q1002 TEMPO 4000 RA OVC004
  • 131100Z AUTO 21013KT 9999 BKN007 BKN024 BKN029 07/06 Q1002 TEMPO 4000 RA OVC004 BECMG 22020G30KT
  • 131030Z AUTO 22016KT 9999 BKN006 OVC019 06/06 Q1003 TEMPO 4000 RA OVC004 BECMG 22020G30KT

TAF AMD TAF LFAQ
Valide du 13 à 12h jusqu'au 13 à 21h UTC


131229Z 1312/1321 21013KT 9999 BKN017
TEMPO 1312/1319 4000 RA OVC004
TEMPO 1318/1319 2000 SHRA BKN004 BKN013CB
PROB30
TEMPO 1318/1319 TSRA
FM131900 27020G30KT 9999 SCT030
Pas de NOTAMs connus pour ce terrain.



MET'MAP, la Météo Aéronautique d'un coup d'oeil ! - Copyright ORBIFLY Décembre 2007 - Disclaimer

ORBIFLY MET'MAP TEAM :

Programmation & Développement : Alexandra Zaïnal
Conception & Développement : Baudouin d'Aumeries
Co-Programmation & Développement : Marc-Olivier Méhu
Soutien technique & logistique : Manuel Goepfert

Contact : metmap@orbifly.com




SOURCES & CREDITS :

   NOAA